createdAt,value
2022-07-29T00:01:19.612Z,2.25
2022-07-29T00:03:49.873Z,2.25
2022-07-29T00:06:18.283Z,2.19
2022-07-29T00:08:46.393Z,2.28
2022-07-29T00:11:14.809Z,2.40
2022-07-29T00:13:45.393Z,2.48
2022-07-29T00:16:24.480Z,2.13
2022-07-29T00:18:52.341Z,2.29
2022-07-29T00:21:21.609Z,2.10
2022-07-29T00:23:49.539Z,2.22
2022-07-29T00:26:17.491Z,2.37
2022-07-29T00:28:45.301Z,2.22
2022-07-29T00:31:16.262Z,2.38
2022-07-29T00:33:44.346Z,2.69
2022-07-29T00:36:18.586Z,2.28
2022-07-29T00:38:47.075Z,2.35
2022-07-29T00:41:15.486Z,2.46
2022-07-29T00:43:44.126Z,2.43
2022-07-29T00:46:13.905Z,2.35
2022-07-29T00:48:42.756Z,2.31
2022-07-29T00:51:16.562Z,2.12
2022-07-29T00:53:45.091Z,2.23
2022-07-29T00:56:17.254Z,2.22
2022-07-29T00:58:48.697Z,2.20
2022-07-29T01:01:16.704Z,2.57
2022-07-29T01:03:44.647Z,2.54
2022-07-29T01:06:17.458Z,2.78
2022-07-29T01:08:49.135Z,2.74
2022-07-29T01:11:21.282Z,2.88
2022-07-29T01:13:49.750Z,2.88
2022-07-29T01:16:28.962Z,2.83
2022-07-29T01:19:22.950Z,3.15
2022-07-29T01:22:00.919Z,2.90
2022-07-29T01:25:25.588Z,3.00
2022-07-29T01:28:15.793Z,2.89
2022-07-29T01:30:49.427Z,2.85
2022-07-29T01:33:43.920Z,2.90
2022-07-29T01:36:18.758Z,2.99
2022-07-29T01:39:00.356Z,2.88
2022-07-29T01:41:33.636Z,2.93
2022-07-29T01:44:08.900Z,2.87
2022-07-29T01:46:41.397Z,3.18
2022-07-29T01:49:28.267Z,2.92
2022-07-29T01:52:14.338Z,2.87
2022-07-29T01:54:57.045Z,3.04
2022-07-29T01:57:32.836Z,2.96
2022-07-29T02:00:03.061Z,2.86
2022-07-29T02:02:45.328Z,3.29
2022-07-29T02:05:21.362Z,2.86
2022-07-29T02:07:51.404Z,2.94
2022-07-29T02:10:26.005Z,3.15
2022-07-29T02:12:58.526Z,2.94
2022-07-29T02:15:30.282Z,3.17
2022-07-29T02:18:16.040Z,3.01
2022-07-29T02:20:50.230Z,3.18
2022-07-29T02:23:22.798Z,3.28
2022-07-29T02:25:59.720Z,3.25
2022-07-29T02:28:32.290Z,3.56
2022-07-29T02:31:03.732Z,3.32
2022-07-29T02:33:33.912Z,3.09
2022-07-29T02:36:04.158Z,3.22
2022-07-29T02:38:52.711Z,3.28
2022-07-29T02:41:45.312Z,3.26
2022-07-29T02:44:31.286Z,3.41
2022-07-29T02:47:41.453Z,2.78
2022-07-29T02:50:22.661Z,3.24
2022-07-29T02:53:04.297Z,3.36
2022-07-29T02:56:00.826Z,3.03
2022-07-29T02:58:39.730Z,3.17
2022-07-29T03:01:24.180Z,3.19
2022-07-29T03:03:54.969Z,3.37
2022-07-29T03:06:38.604Z,3.43
2022-07-29T03:09:15.241Z,3.33
2022-07-29T03:11:55.522Z,3.06
2022-07-29T03:14:24.715Z,3.05
2022-07-29T03:16:57.843Z,2.98
2022-07-29T03:19:27.441Z,3.27
2022-07-29T03:21:58.922Z,3.29
2022-07-29T03:24:34.931Z,3.03
2022-07-29T03:27:05.349Z,3.13
2022-07-29T03:29:34.729Z,3.21
2022-07-29T03:32:30.056Z,3.29
2022-07-29T03:34:57.678Z,3.39
2022-07-29T03:37:25.367Z,3.40
2022-07-29T03:39:56.970Z,3.29
2022-07-29T03:42:34.049Z,3.47
2022-07-29T03:45:08.197Z,3.63
2022-07-29T03:47:50.927Z,3.74
2022-07-29T03:50:21.907Z,3.16
2022-07-29T03:52:50.340Z,3.41
2022-07-29T03:55:18.290Z,3.56
2022-07-29T03:57:48.650Z,3.21
2022-07-29T04:00:17.238Z,3.34
2022-07-29T04:02:49.265Z,3.40
2022-07-29T04:05:18.696Z,3.53
2022-07-29T04:07:50.649Z,3.52
2022-07-29T04:10:26.916Z,3.61
2022-07-29T04:13:01.623Z,3.30
2022-07-29T04:15:31.217Z,3.32
2022-07-29T04:17:59.910Z,3.18
2022-07-29T04:20:28.517Z,3.23
2022-07-29T04:22:56.350Z,3.35
2022-07-29T04:25:24.175Z,3.37
2022-07-29T04:28:04.572Z,3.25
2022-07-29T04:30:42.326Z,3.28
2022-07-29T04:33:11.295Z,3.16
2022-07-29T04:35:49.750Z,3.26
2022-07-29T04:38:20.002Z,3.23
2022-07-29T04:40:47.775Z,3.33
2022-07-29T04:43:22.746Z,3.16
2022-07-29T04:45:52.419Z,3.45
2022-07-29T04:48:24.029Z,3.15
2022-07-29T04:50:56.442Z,3.05
2022-07-29T04:53:24.082Z,3.52
2022-07-29T04:55:51.629Z,3.44
2022-07-29T04:58:20.108Z,3.11
2022-07-29T05:00:47.870Z,3.56
2022-07-29T05:03:15.742Z,3.30
2022-07-29T05:05:43.681Z,3.41
2022-07-29T05:08:19.232Z,3.48
2022-07-29T05:10:47.556Z,3.47
2022-07-29T05:13:18.027Z,3.47
2022-07-29T05:15:46.004Z,3.44
2022-07-29T05:18:16.728Z,3.46
2022-07-29T05:20:44.282Z,3.14
2022-07-29T05:23:16.529Z,3.35
2022-07-29T05:25:45.000Z,3.41
2022-07-29T05:28:16.242Z,3.39
2022-07-29T05:30:45.578Z,3.32
2022-07-29T05:33:35.515Z,3.50
2022-07-29T05:36:08.369Z,3.31
2022-07-29T05:38:38.242Z,3.23
2022-07-29T05:41:06.635Z,3.50
2022-07-29T05:43:34.746Z,3.47
2022-07-29T05:46:02.806Z,3.47
2022-07-29T05:48:31.090Z,3.52
2022-07-29T05:50:58.769Z,3.66
2022-07-29T05:53:26.651Z,3.67
2022-07-29T05:55:54.497Z,3.39
2022-07-29T05:58:22.185Z,3.45
2022-07-29T06:00:50.084Z,3.66
2022-07-29T06:03:17.663Z,3.54
2022-07-29T06:05:45.569Z,3.48
2022-07-29T06:08:14.637Z,3.61
2022-07-29T06:10:42.535Z,3.48
2022-07-29T06:13:20.972Z,4.46
2022-07-29T06:15:48.689Z,4.53
2022-07-29T06:18:16.504Z,4.13
2022-07-29T06:20:44.434Z,3.52
2022-07-29T06:23:13.745Z,3.52
2022-07-29T06:25:42.733Z,3.50
2022-07-29T06:28:17.920Z,3.42
2022-07-29T06:30:45.624Z,3.01
2022-07-29T06:33:22.770Z,3.47
2022-07-29T06:35:55.042Z,3.64
2022-07-29T06:38:33.791Z,3.68
2022-07-29T06:41:03.041Z,3.70
2022-07-29T06:43:55.295Z,3.62
2022-07-29T06:46:26.391Z,3.59
2022-07-29T06:48:54.565Z,3.92
2022-07-29T06:51:23.936Z,3.97
2022-07-29T06:53:59.466Z,4.78
2022-07-29T06:56:42.760Z,5.07
2022-07-29T06:59:15.470Z,3.70
2022-07-29T07:01:44.652Z,3.86
2022-07-29T07:04:15.558Z,3.91
2022-07-29T07:06:43.979Z,3.72
2022-07-29T07:09:16.051Z,3.73
2022-07-29T07:11:43.731Z,3.88
2022-07-29T07:14:14.178Z,3.75
2022-07-29T07:16:42.847Z,4.06
2022-07-29T07:19:14.080Z,4.05
2022-07-29T07:21:44.545Z,6.67
2022-07-29T07:24:15.034Z,3.78
2022-07-29T07:26:46.271Z,3.77
2022-07-29T07:29:16.947Z,3.66
2022-07-29T07:31:45.145Z,3.49
2022-07-29T07:34:14.387Z,3.43
2022-07-29T07:36:42.860Z,3.39
2022-07-29T07:39:11.819Z,3.28
2022-07-29T07:41:41.173Z,3.37
2022-07-29T07:44:12.903Z,3.66
2022-07-29T07:46:43.520Z,3.71
2022-07-29T07:49:15.936Z,3.48
2022-07-29T07:51:43.723Z,3.28
2022-07-29T07:54:20.813Z,3.70
2022-07-29T07:56:53.287Z,4.19
2022-07-29T07:59:21.438Z,4.61
2022-07-29T08:01:56.316Z,4.22
2022-07-29T08:04:28.662Z,3.36
2022-07-29T08:06:57.901Z,3.77
2022-07-29T08:09:29.766Z,3.93
2022-07-29T08:12:00.470Z,4.15
2022-07-29T08:14:28.237Z,3.95
2022-07-29T08:16:55.970Z,3.89
2022-07-29T08:19:23.612Z,3.81
2022-07-29T08:21:54.660Z,6.47
2022-07-29T08:24:42.700Z,5.19
2022-07-29T08:27:41.773Z,3.76
2022-07-29T08:30:05.559Z,3.65
2022-07-29T08:32:52.543Z,3.91
2022-07-29T08:35:23.035Z,3.80
2022-07-29T08:37:50.878Z,4.02
2022-07-29T08:40:20.306Z,4.22
2022-07-29T08:42:58.649Z,4.07
2022-07-29T08:45:28.832Z,4.22
2022-07-29T08:47:57.830Z,4.27
2022-07-29T08:50:25.591Z,4.35
2022-07-29T08:52:57.922Z,4.33
2022-07-29T08:55:28.048Z,4.79
2022-07-29T08:57:57.588Z,4.96
2022-07-29T09:00:27.429Z,5.02
2022-07-29T09:03:00.431Z,4.28
2022-07-29T09:05:29.111Z,4.38
2022-07-29T09:07:57.523Z,4.72
2022-07-29T09:10:25.360Z,4.78
2022-07-29T09:12:53.495Z,4.31
2022-07-29T09:15:21.195Z,4.43
2022-07-29T09:17:50.774Z,4.60
2022-07-29T09:20:22.860Z,4.59
2022-07-29T09:22:54.675Z,4.61
2022-07-29T09:25:37.096Z,4.51
2022-07-29T09:28:17.747Z,5.21
2022-07-29T09:30:55.455Z,6.61
2022-07-29T09:33:25.287Z,5.61
2022-07-29T09:36:12.526Z,5.06
2022-07-29T09:38:43.753Z,4.74
2022-07-29T09:41:16.049Z,4.54
2022-07-29T09:43:59.260Z,4.52
2022-07-29T09:46:27.425Z,4.76
2022-07-29T09:49:14.181Z,4.72
2022-07-29T09:51:42.661Z,4.71
2022-07-29T09:54:27.714Z,4.74
2022-07-29T09:56:57.430Z,4.61
2022-07-29T09:59:27.559Z,4.88
2022-07-29T10:01:55.739Z,4.77
2022-07-29T10:04:23.491Z,4.90
2022-07-29T10:07:04.836Z,4.72
2022-07-29T10:09:33.752Z,4.82
2022-07-29T10:12:06.899Z,4.61
2022-07-29T10:14:36.384Z,5.03
2022-07-29T10:17:06.966Z,4.80
2022-07-29T10:19:37.075Z,4.69
2022-07-29T10:22:08.438Z,4.84
2022-07-29T10:24:38.346Z,4.56
2022-07-29T10:27:19.112Z,4.33
2022-07-29T10:29:46.877Z,4.81
2022-07-29T10:32:32.533Z,4.71
2022-07-29T10:35:20.437Z,4.88
2022-07-29T10:37:48.657Z,5.31
2022-07-29T10:40:50.432Z,5.05
2022-07-29T10:43:29.940Z,4.82
2022-07-29T10:46:01.962Z,4.66
2022-07-29T10:48:30.179Z,4.57
2022-07-29T10:51:06.992Z,4.75
2022-07-29T10:53:54.757Z,6.66
2022-07-29T10:56:30.423Z,4.60
2022-07-29T10:59:21.730Z,4.95
2022-07-29T11:01:53.386Z,5.15
2022-07-29T11:04:46.986Z,4.82
2022-07-29T11:07:17.478Z,4.73
2022-07-29T11:09:46.553Z,4.93
2022-07-29T11:12:39.858Z,5.26
2022-07-29T11:15:20.299Z,4.88
2022-07-29T11:17:59.408Z,5.03
2022-07-29T11:20:49.693Z,4.92
2022-07-29T11:23:37.544Z,4.76
2022-07-29T11:26:14.938Z,5.37
2022-07-29T11:28:53.093Z,5.42
2022-07-29T11:31:38.215Z,5.49
2022-07-29T11:34:29.636Z,4.04
2022-07-29T11:37:15.539Z,4.14
2022-07-29T11:39:48.690Z,4.58
2022-07-29T11:45:43.336Z,4.18
2022-07-29T11:48:29.972Z,4.32
2022-07-29T11:51:01.257Z,4.55
2022-07-29T11:53:33.039Z,6.13
2022-07-29T11:56:03.402Z,4.13
2022-07-29T11:58:32.797Z,3.86
2022-07-29T12:01:04.790Z,4.44
2022-07-29T12:03:35.962Z,4.52
2022-07-29T12:06:17.425Z,4.56
2022-07-29T12:08:46.304Z,4.89
2022-07-29T12:11:23.525Z,4.77
2022-07-29T12:13:56.576Z,4.60
2022-07-29T12:16:37.921Z,4.78
2022-07-29T12:19:07.124Z,5.16
2022-07-29T12:21:54.056Z,5.30
2022-07-29T12:24:27.679Z,6.74
2022-07-29T12:26:59.998Z,5.16
2022-07-29T12:29:33.989Z,4.67
2022-07-29T12:32:04.467Z,4.83
2022-07-29T12:34:36.287Z,4.47
2022-07-29T12:37:04.459Z,4.58
2022-07-29T12:39:32.434Z,4.39
2022-07-29T12:42:04.601Z,4.09
2022-07-29T12:44:49.546Z,3.53
2022-07-29T12:47:22.194Z,3.36
2022-07-29T12:49:52.228Z,3.32
2022-07-29T12:52:35.702Z,3.50
2022-07-29T12:55:04.915Z,3.42
2022-07-29T12:57:33.775Z,3.51
2022-07-29T13:00:13.646Z,3.59
2022-07-29T13:02:44.491Z,3.30
2022-07-29T13:05:16.055Z,3.01
2022-07-29T13:07:55.710Z,2.92
2022-07-29T13:10:26.321Z,2.79
2022-07-29T13:13:13.698Z,2.67
2022-07-29T13:15:48.552Z,2.54
2022-07-29T13:18:43.443Z,2.99
2022-07-29T13:21:18.734Z,2.86
2022-07-29T13:23:47.189Z,2.51
2022-07-29T13:26:17.229Z,2.48
2022-07-29T13:28:45.002Z,2.40
2022-07-29T13:31:23.115Z,2.24
2022-07-29T13:33:51.180Z,2.56
2022-07-29T13:36:21.504Z,2.59
2022-07-29T13:38:49.226Z,2.40
2022-07-29T13:41:17.751Z,2.49
2022-07-29T13:43:45.813Z,2.56
2022-07-29T13:46:17.904Z,2.72
2022-07-29T13:48:46.047Z,2.45
2022-07-29T13:51:14.106Z,2.44
2022-07-29T13:53:44.751Z,2.66
2022-07-29T13:56:17.540Z,2.79
2022-07-29T13:58:45.130Z,3.05
2022-07-29T14:01:16.237Z,2.76
2022-07-29T14:03:45.794Z,2.68
2022-07-29T14:06:18.947Z,2.71
2022-07-29T14:08:50.066Z,2.86
2022-07-29T14:11:17.697Z,2.99
2022-07-29T14:13:45.443Z,4.49
2022-07-29T14:16:16.356Z,7.16
2022-07-29T14:18:44.736Z,4.79
2022-07-29T14:21:15.749Z,2.90
2022-07-29T14:23:43.667Z,2.93
2022-07-29T14:26:16.052Z,3.67
2022-07-29T14:28:50.212Z,3.63
2022-07-29T14:31:18.119Z,3.16
2022-07-29T14:33:49.330Z,2.70
2022-07-29T14:36:18.968Z,3.59
2022-07-29T14:38:46.757Z,3.13
2022-07-29T14:41:15.641Z,3.93
2022-07-29T14:43:45.101Z,4.62
2022-07-29T14:46:14.390Z,3.22
2022-07-29T14:48:42.772Z,3.36
2022-07-29T14:51:13.884Z,3.40
2022-07-29T14:53:44.954Z,3.47
2022-07-29T14:56:35.997Z,3.30
2022-07-29T14:59:05.577Z,3.32
2022-07-29T15:01:33.309Z,3.44
2022-07-29T15:04:01.846Z,3.40
2022-07-29T15:06:29.427Z,3.79
2022-07-29T15:08:57.343Z,3.50
2022-07-29T15:11:25.058Z,6.30
2022-07-29T15:13:52.757Z,4.98
2022-07-29T15:16:20.657Z,4.09
2022-07-29T15:18:48.411Z,4.05
2022-07-29T15:21:16.752Z,4.15
2022-07-29T15:23:50.309Z,4.07
2022-07-29T15:26:18.909Z,3.51
2022-07-29T15:28:46.868Z,3.68
2022-07-29T15:31:15.165Z,3.46
2022-07-29T15:33:44.019Z,3.68
2022-07-29T15:36:35.639Z,2.96
2022-07-29T15:39:02.733Z,3.43
2022-07-29T15:41:30.687Z,3.39
2022-07-29T15:43:59.132Z,3.68
2022-07-29T15:46:45.575Z,3.41
2022-07-29T15:49:16.588Z,3.29
2022-07-29T15:51:44.690Z,7.30
2022-07-29T15:54:17.700Z,4.46
2022-07-29T15:56:45.496Z,4.17
2022-07-29T15:59:22.408Z,3.60
2022-07-29T16:01:53.670Z,3.53
2022-07-29T16:04:21.908Z,3.79
2022-07-29T16:06:50.299Z,3.42
2022-07-29T16:09:19.013Z,3.51
2022-07-29T16:11:50.874Z,3.54
2022-07-29T16:14:18.990Z,3.21
2022-07-29T16:16:47.368Z,3.48
2022-07-29T16:19:15.754Z,3.64
2022-07-29T16:21:47.171Z,5.56
2022-07-29T16:24:15.171Z,7.73
2022-07-29T16:26:43.629Z,6.57
2022-07-29T16:29:14.273Z,3.80
2022-07-29T16:31:44.318Z,3.31
2022-07-29T16:34:16.524Z,3.39
2022-07-29T16:36:57.714Z,3.13
2022-07-29T16:39:25.454Z,3.26
2022-07-29T16:41:55.900Z,3.25
2022-07-29T16:44:25.870Z,3.26
2022-07-29T16:46:55.885Z,3.21
2022-07-29T16:49:24.227Z,3.71
2022-07-29T16:51:52.261Z,5.09
2022-07-29T16:54:20.088Z,3.35
2022-07-29T16:56:48.347Z,3.45
2022-07-29T16:59:18.928Z,3.84
2022-07-29T17:01:49.230Z,3.76
2022-07-29T17:04:17.373Z,3.67
2022-07-29T17:06:45.075Z,3.66
2022-07-29T17:09:19.503Z,3.52
2022-07-29T17:11:55.138Z,3.40
2022-07-29T17:14:31.112Z,3.41
2022-07-29T17:17:02.179Z,3.51
2022-07-29T17:19:35.522Z,3.73
2022-07-29T17:22:14.317Z,3.69
2022-07-29T17:24:47.769Z,3.74
2022-07-29T17:27:15.767Z,4.54
2022-07-29T17:29:48.800Z,4.27
2022-07-29T17:32:16.732Z,4.12
2022-07-29T17:34:47.269Z,4.66
2022-07-29T17:37:16.985Z,4.65
2022-07-29T17:39:45.082Z,4.24
2022-07-29T17:42:15.375Z,4.03
2022-07-29T17:44:44.861Z,4.14
2022-07-29T17:47:16.749Z,4.26
2022-07-29T17:49:45.715Z,3.73
2022-07-29T17:52:18.497Z,4.00
2022-07-29T17:54:48.650Z,4.03
2022-07-29T17:57:16.322Z,3.84
2022-07-29T17:59:48.418Z,4.08
2022-07-29T18:02:16.217Z,4.32
2022-07-29T18:04:44.499Z,3.72
2022-07-29T18:07:18.689Z,4.81
2022-07-29T18:09:46.657Z,4.59
2022-07-29T18:12:14.972Z,4.62
2022-07-29T18:14:46.776Z,3.50
2022-07-29T18:17:15.624Z,3.68
2022-07-29T18:19:49.267Z,3.80
2022-07-29T18:22:19.178Z,3.58
2022-07-29T18:24:46.852Z,7.21
2022-07-29T18:27:17.977Z,4.87
2022-07-29T18:29:45.747Z,4.43
2022-07-29T18:32:19.156Z,3.85
2022-07-29T18:34:57.382Z,3.75
2022-07-29T18:38:01.058Z,3.67
2022-07-29T18:40:18.518Z,3.29
2022-07-29T18:42:50.037Z,3.26
2022-07-29T18:45:19.430Z,3.36
2022-07-29T18:47:50.571Z,3.49
2022-07-29T18:50:19.655Z,3.58
2022-07-29T18:52:49.414Z,3.54
2022-07-29T18:55:17.613Z,3.53
2022-07-29T18:57:56.344Z,3.74
2022-07-29T19:00:28.305Z,3.43
2022-07-29T19:02:57.095Z,3.49
2022-07-29T19:05:25.591Z,3.45
2022-07-29T19:07:54.830Z,3.45
2022-07-29T19:10:23.499Z,3.56
2022-07-29T19:12:51.291Z,4.37
2022-07-29T19:15:21.475Z,4.59
2022-07-29T19:17:49.799Z,4.78
2022-07-29T19:20:20.141Z,4.77
2022-07-29T19:22:48.289Z,4.50
2022-07-29T19:25:15.954Z,4.36
2022-07-29T19:27:43.668Z,4.37
2022-07-29T19:30:21.698Z,4.18
2022-07-29T19:32:49.857Z,4.48
2022-07-29T19:35:33.188Z,4.27
2022-07-29T19:38:02.173Z,4.44
2022-07-29T19:40:30.542Z,4.49
2022-07-29T19:42:58.623Z,4.45
2022-07-29T19:45:29.190Z,4.99
2022-07-29T19:48:01.253Z,4.83
2022-07-29T19:50:29.848Z,4.70
2022-07-29T19:52:58.465Z,4.59
2022-07-29T19:55:27.920Z,4.65
2022-07-29T19:57:59.395Z,5.02
2022-07-29T20:00:31.973Z,4.94
2022-07-29T20:02:59.791Z,5.05
2022-07-29T20:05:34.440Z,4.89
2022-07-29T20:08:06.312Z,4.95
2022-07-29T20:10:35.521Z,5.32
2022-07-29T20:13:03.713Z,5.05
2022-07-29T20:15:31.485Z,5.36
2022-07-29T20:17:59.323Z,6.19
2022-07-29T20:20:30.037Z,5.83
2022-07-29T20:23:02.585Z,5.92
2022-07-29T20:25:30.950Z,5.41
2022-07-29T20:27:58.730Z,5.57
2022-07-29T20:30:27.323Z,5.63
2022-07-29T20:32:55.373Z,5.50
2022-07-29T20:35:23.653Z,5.48
2022-07-29T20:37:58.278Z,5.40
2022-07-29T20:40:35.854Z,5.53
2022-07-29T20:43:03.696Z,5.25
2022-07-29T20:45:31.295Z,5.25
2022-07-29T20:48:02.027Z,5.58
2022-07-29T20:50:30.756Z,5.95
2022-07-29T20:52:59.670Z,5.73
2022-07-29T20:55:32.252Z,5.84
2022-07-29T20:58:00.146Z,5.93
2022-07-29T21:00:28.645Z,5.81
2022-07-29T21:02:56.417Z,6.04
2022-07-29T21:05:24.939Z,6.06
2022-07-29T21:07:58.580Z,5.44
2022-07-29T21:10:28.389Z,5.22
2022-07-29T21:12:56.562Z,4.89
2022-07-29T21:15:24.968Z,4.97
2022-07-29T21:18:00.589Z,5.02
2022-07-29T21:20:29.328Z,4.95
2022-07-29T21:23:04.703Z,4.36
2022-07-29T21:25:34.488Z,4.57
2022-07-29T21:28:22.023Z,4.63
2022-07-29T21:30:50.860Z,4.44
2022-07-29T21:33:18.786Z,4.53
2022-07-29T21:36:15.081Z,4.50
2022-07-29T21:38:35.650Z,4.46
2022-07-29T21:41:05.409Z,4.38
2022-07-29T21:43:34.219Z,4.33
2022-07-29T21:46:02.327Z,4.44
2022-07-29T21:48:30.540Z,4.51
2022-07-29T21:50:58.938Z,4.23
2022-07-29T21:53:28.482Z,4.47
2022-07-29T21:55:56.311Z,4.47
2022-07-29T21:58:24.955Z,4.47
2022-07-29T22:00:54.181Z,4.42
2022-07-29T22:03:22.149Z,4.05
2022-07-29T22:05:50.535Z,4.30
2022-07-29T22:08:21.345Z,4.37
2022-07-29T22:10:52.517Z,4.38
2022-07-29T22:13:20.547Z,4.30
2022-07-29T22:15:48.917Z,4.57
2022-07-29T22:18:21.126Z,4.45
2022-07-29T22:20:51.352Z,4.70
2022-07-29T22:23:19.263Z,4.56
2022-07-29T22:25:50.506Z,4.81
2022-07-29T22:28:18.249Z,4.97
2022-07-29T22:30:46.176Z,4.90
2022-07-29T22:33:17.598Z,5.00
2022-07-29T22:35:56.000Z,4.87
2022-07-29T22:38:24.401Z,4.86
2022-07-29T22:40:52.554Z,4.58
2022-07-29T22:43:20.671Z,5.43
2022-07-29T22:45:49.110Z,4.93
2022-07-29T22:48:16.840Z,5.00
2022-07-29T22:50:44.689Z,5.09
2022-07-29T22:53:15.367Z,4.93
2022-07-29T22:55:43.146Z,5.26
2022-07-29T22:58:13.367Z,4.92
2022-07-29T23:00:42.398Z,5.41
2022-07-29T23:03:09.968Z,5.24
2022-07-29T23:05:42.608Z,5.53
2022-07-29T23:08:16.366Z,5.55
2022-07-29T23:10:44.627Z,5.32
2022-07-29T23:13:16.354Z,5.32
2022-07-29T23:15:43.935Z,5.46
2022-07-29T23:18:14.984Z,5.50
2022-07-29T23:20:44.176Z,5.63
2022-07-29T23:23:14.649Z,5.42
2022-07-29T23:25:42.979Z,5.52
2022-07-29T23:28:13.200Z,5.53
2022-07-29T23:30:44.476Z,5.27
2022-07-29T23:33:15.396Z,5.03
2022-07-29T23:35:43.188Z,5.02
2022-07-29T23:38:11.591Z,5.33
2022-07-29T23:40:43.031Z,5.59
2022-07-29T23:43:15.033Z,5.82
2022-07-29T23:45:45.185Z,5.94
2022-07-29T23:48:21.539Z,5.99
2022-07-29T23:50:55.473Z,5.85
2022-07-29T23:53:24.337Z,5.65
2022-07-29T23:55:52.816Z,5.58
2022-07-29T23:58:20.496Z,5.46
